Arbovale, West Virginia
Current Conditions -  °F | °C
As of 9:51 PM on Monday 20 Oct 2014 (Local Time) from KEKN Reporting Station
Light Rain Light Rain  
Wind Chill:   Ceiling: 5500
Heat Index:   Visibility: 10mi
Dew Point:   Wind: 0mph
Humidity: 100%   Direction: NA
Pressure: 29.95"   Gusts: NA
Location:  38.44°N, 79.82°W
Report Text: KEKN 210151Z AUTO 00000KT 10SM -RA SCT047 BKN055 OVC100 08/08 A2995 RMK AO2 RAB51 SLP157 P0000 T00830083 TSNO
Loading
Personal Weather Stations






























Interactive Weather Map
Tropical Storm Tracking
New forecast layout! Learn more

10-Day Weather Forecast

Advertisements
Track Severe Weather on mobile